Inlet, New York
Current Conditions -  °F | °C
As of 8:53 AM on Tuesday 21 Oct 2014 (Local Time) from KRME Reporting Station
Light Rain Light Rain  
Wind Chill: 46°   Ceiling: 5500
Heat Index: 48°   Visibility: 10mi
Dew Point: 46°   Wind: 5mph
Humidity: 93%   Direction: 110°ESE
Pressure: 29.89"   Gusts: NA
Location:  43.75°N, 74.79°W
Report Text: KRME 211253Z 11004KT 10SM -RA SCT045 OVC055 09/08 A2989 RMK AO2 RAB38 SLP121 P0000 T00890078
Loading
Personal Weather Stations






























Interactive Weather Map
Tropical Storm Tracking
New forecast layout! Learn more

10-Day Weather Forecast

Advertisements
Track Severe Weather on mobile